sensor_id;sensor_type;location;lat;lon;timestamp;P1;durP1;ratioP1;P2;durP2;ratioP2
81996;SDS011;71500;50.806;8.774;2024-03-02T00:00:22;10.00;;;7.70;;
81996;SDS011;71500;50.806;8.774;2024-03-02T00:03:15;10.90;;;7.60;;
81996;SDS011;71500;50.806;8.774;2024-03-02T00:05:50;9.30;;;7.80;;
81996;SDS011;71500;50.806;8.774;2024-03-02T00:08:23;9.40;;;8.20;;
81996;SDS011;71500;50.806;8.774;2024-03-02T00:10:58;9.90;;;7.20;;
81996;SDS011;71500;50.806;8.774;2024-03-02T00:13:31;9.40;;;7.70;;
81996;SDS011;71500;50.806;8.774;2024-03-02T00:16:05;10.40;;;8.40;;
81996;SDS011;71500;50.806;8.774;2024-03-02T00:18:36;7.80;;;6.40;;
81996;SDS011;71500;50.806;8.774;2024-03-02T00:21:08;9.40;;;7.80;;
81996;SDS011;71500;50.806;8.774;2024-03-02T00:23:39;10.30;;;7.20;;
81996;SDS011;71500;50.806;8.774;2024-03-02T00:26:12;9.80;;;7.10;;
81996;SDS011;71500;50.806;8.774;2024-03-02T00:28:44;9.10;;;7.10;;
81996;SDS011;71500;50.806;8.774;2024-03-02T00:31:18;7.30;;;5.30;;
81996;SDS011;71500;50.806;8.774;2024-03-02T00:33:51;8.40;;;6.50;;
81996;SDS011;71500;50.806;8.774;2024-03-02T00:36:24;6.30;;;5.50;;
81996;SDS011;71500;50.806;8.774;2024-03-02T00:38:56;6.20;;;4.80;;
81996;SDS011;71500;50.806;8.774;2024-03-02T00:41:29;6.90;;;5.60;;
81996;SDS011;71500;50.806;8.774;2024-03-02T00:44:01;8.60;;;6.20;;
81996;SDS011;71500;50.806;8.774;2024-03-02T00:46:35;7.90;;;6.50;;
81996;SDS011;71500;50.806;8.774;2024-03-02T00:49:11;7.40;;;5.50;;
81996;SDS011;71500;50.806;8.774;2024-03-02T00:51:50;8.40;;;6.40;;
81996;SDS011;71500;50.806;8.774;2024-03-02T00:56:53;6.70;;;5.30;;
81996;SDS011;71500;50.806;8.774;2024-03-02T00:59:27;7.10;;;5.20;;
81996;SDS011;71500;50.806;8.774;2024-03-02T01:02:00;7.10;;;5.40;;
81996;SDS011;71500;50.806;8.774;2024-03-02T01:04:32;8.00;;;6.70;;
81996;SDS011;71500;50.806;8.774;2024-03-02T01:07:03;8.30;;;7.10;;
81996;SDS011;71500;50.806;8.774;2024-03-02T01:09:35;9.40;;;6.90;;
81996;SDS011;71500;50.806;8.774;2024-03-02T01:12:07;9.50;;;6.60;;
81996;SDS011;71500;50.806;8.774;2024-03-02T01:14:38;9.10;;;6.00;;
81996;SDS011;71500;50.806;8.774;2024-03-02T01:17:09;8.10;;;6.20;;
81996;SDS011;71500;50.806;8.774;2024-03-02T01:19:42;7.90;;;5.80;;
81996;SDS011;71500;50.806;8.774;2024-03-02T01:24:44;7.40;;;4.80;;
81996;SDS011;71500;50.806;8.774;2024-03-02T01:27:15;6.80;;;5.40;;
81996;SDS011;71500;50.806;8.774;2024-03-02T01:29:47;7.00;;;4.80;;
81996;SDS011;71500;50.806;8.774;2024-03-02T01:32:18;6.70;;;5.00;;
81996;SDS011;71500;50.806;8.774;2024-03-02T01:34:50;6.00;;;5.30;;
81996;SDS011;71500;50.806;8.774;2024-03-02T01:37:21;6.40;;;4.80;;
81996;SDS011;71500;50.806;8.774;2024-03-02T01:39:52;7.50;;;5.50;;
81996;SDS011;71500;50.806;8.774;2024-03-02T01:42:24;7.60;;;5.60;;
81996;SDS011;71500;50.806;8.774;2024-03-02T01:44:55;9.00;;;6.60;;
81996;SDS011;71500;50.806;8.774;2024-03-02T01:47:27;7.40;;;5.70;;
81996;SDS011;71500;50.806;8.774;2024-03-02T01:49:58;7.30;;;5.60;;
81996;SDS011;71500;50.806;8.774;2024-03-02T01:52:30;6.50;;;5.50;;
81996;SDS011;71500;50.806;8.774;2024-03-02T01:55:02;9.20;;;5.40;;
81996;SDS011;71500;50.806;8.774;2024-03-02T01:57:34;6.90;;;5.90;;
81996;SDS011;71500;50.806;8.774;2024-03-02T02:00:07;8.20;;;6.40;;
81996;SDS011;71500;50.806;8.774;2024-03-02T02:02:39;7.70;;;6.00;;
81996;SDS011;71500;50.806;8.774;2024-03-02T02:05:11;8.60;;;6.00;;
81996;SDS011;71500;50.806;8.774;2024-03-02T02:07:42;7.80;;;6.10;;
81996;SDS011;71500;50.806;8.774;2024-03-02T02:10:14;7.60;;;6.50;;
81996;SDS011;71500;50.806;8.774;2024-03-02T02:12:45;8.20;;;6.10;;
81996;SDS011;71500;50.806;8.774;2024-03-02T02:15:23;7.80;;;5.80;;
81996;SDS011;71500;50.806;8.774;2024-03-02T02:17:57;8.30;;;5.80;;
81996;SDS011;71500;50.806;8.774;2024-03-02T02:20:29;9.00;;;6.60;;
81996;SDS011;71500;50.806;8.774;2024-03-02T02:23:01;7.60;;;6.10;;
81996;SDS011;71500;50.806;8.774;2024-03-02T02:25:36;7.60;;;5.80;;
81996;SDS011;71500;50.806;8.774;2024-03-02T02:28:08;7.40;;;5.60;;
81996;SDS011;71500;50.806;8.774;2024-03-02T02:30:40;8.00;;;4.90;;
81996;SDS011;71500;50.806;8.774;2024-03-02T02:33:11;7.60;;;5.30;;
81996;SDS011;71500;50.806;8.774;2024-03-02T02:35:43;6.10;;;5.40;;
81996;SDS011;71500;50.806;8.774;2024-03-02T02:38:15;6.30;;;5.50;;
81996;SDS011;71500;50.806;8.774;2024-03-02T02:40:48;7.30;;;5.20;;
81996;SDS011;71500;50.806;8.774;2024-03-02T02:43:20;7.00;;;5.10;;
81996;SDS011;71500;50.806;8.774;2024-03-02T02:45:51;7.40;;;5.80;;
81996;SDS011;71500;50.806;8.774;2024-03-02T02:48:23;6.60;;;5.40;;
81996;SDS011;71500;50.806;8.774;2024-03-02T02:50:55;7.60;;;5.60;;
81996;SDS011;71500;50.806;8.774;2024-03-02T02:53:26;7.00;;;5.60;;
81996;SDS011;71500;50.806;8.774;2024-03-02T02:55:58;6.00;;;5.00;;
81996;SDS011;71500;50.806;8.774;2024-03-02T02:58:30;7.10;;;5.70;;
81996;SDS011;71500;50.806;8.774;2024-03-02T03:01:02;6.00;;;4.70;;
81996;SDS011;71500;50.806;8.774;2024-03-02T03:03:34;9.70;;;6.10;;
81996;SDS011;71500;50.806;8.774;2024-03-02T03:06:05;7.10;;;5.40;;
81996;SDS011;71500;50.806;8.774;2024-03-02T03:08:36;7.30;;;5.00;;
81996;SDS011;71500;50.806;8.774;2024-03-02T03:11:08;7.20;;;5.70;;
81996;SDS011;71500;50.806;8.774;2024-03-02T03:13:39;8.40;;;5.70;;
81996;SDS011;71500;50.806;8.774;2024-03-02T03:16:11;8.00;;;5.30;;
81996;SDS011;71500;50.806;8.774;2024-03-02T03:18:42;5.70;;;4.90;;
81996;SDS011;71500;50.806;8.774;2024-03-02T03:21:14;7.20;;;5.30;;
81996;SDS011;71500;50.806;8.774;2024-03-02T03:23:45;9.00;;;6.80;;
81996;SDS011;71500;50.806;8.774;2024-03-02T03:26:16;7.70;;;5.10;;
81996;SDS011;71500;50.806;8.774;2024-03-02T03:28:48;7.40;;;5.20;;
81996;SDS011;71500;50.806;8.774;2024-03-02T03:31:19;6.90;;;4.60;;
81996;SDS011;71500;50.806;8.774;2024-03-02T03:33:50;7.90;;;4.80;;
81996;SDS011;71500;50.806;8.774;2024-03-02T03:36:22;5.70;;;4.10;;
81996;SDS011;71500;50.806;8.774;2024-03-02T03:38:53;5.70;;;4.70;;
81996;SDS011;71500;50.806;8.774;2024-03-02T03:41:24;6.00;;;4.80;;
81996;SDS011;71500;50.806;8.774;2024-03-02T03:43:56;5.30;;;4.60;;
81996;SDS011;71500;50.806;8.774;2024-03-02T03:46:27;6.10;;;4.90;;
81996;SDS011;71500;50.806;8.774;2024-03-02T03:48:58;6.90;;;6.00;;
81996;SDS011;71500;50.806;8.774;2024-03-02T03:51:30;7.10;;;5.00;;
81996;SDS011;71500;50.806;8.774;2024-03-02T03:54:01;6.40;;;5.10;;
81996;SDS011;71500;50.806;8.774;2024-03-02T03:56:32;7.20;;;5.20;;
81996;SDS011;71500;50.806;8.774;2024-03-02T03:59:04;8.00;;;4.80;;
81996;SDS011;71500;50.806;8.774;2024-03-02T04:01:35;6.20;;;5.00;;
81996;SDS011;71500;50.806;8.774;2024-03-02T04:04:07;7.30;;;5.00;;
81996;SDS011;71500;50.806;8.774;2024-03-02T04:06:38;7.10;;;5.30;;
81996;SDS011;71500;50.806;8.774;2024-03-02T04:09:09;6.70;;;4.50;;
81996;SDS011;71500;50.806;8.774;2024-03-02T04:11:40;7.00;;;6.00;;
81996;SDS011;71500;50.806;8.774;2024-03-02T04:14:12;8.10;;;5.60;;
81996;SDS011;71500;50.806;8.774;2024-03-02T04:16:44;6.90;;;5.20;;
81996;SDS011;71500;50.806;8.774;2024-03-02T04:19:15;7.10;;;5.30;;
81996;SDS011;71500;50.806;8.774;2024-03-02T04:21:46;6.80;;;4.60;;
81996;SDS011;71500;50.806;8.774;2024-03-02T04:24:18;5.80;;;4.20;;
81996;SDS011;71500;50.806;8.774;2024-03-02T04:26:50;8.20;;;5.90;;
81996;SDS011;71500;50.806;8.774;2024-03-02T04:29:21;7.10;;;4.80;;
81996;SDS011;71500;50.806;8.774;2024-03-02T04:31:52;6.80;;;4.80;;
81996;SDS011;71500;50.806;8.774;2024-03-02T04:34:24;7.30;;;5.00;;
81996;SDS011;71500;50.806;8.774;2024-03-02T04:36:55;7.30;;;4.90;;
81996;SDS011;71500;50.806;8.774;2024-03-02T04:39:26;6.10;;;5.00;;
81996;SDS011;71500;50.806;8.774;2024-03-02T04:41:58;5.40;;;4.10;;
81996;SDS011;71500;50.806;8.774;2024-03-02T04:44:29;7.20;;;4.60;;
81996;SDS011;71500;50.806;8.774;2024-03-02T04:47:00;7.60;;;4.70;;
81996;SDS011;71500;50.806;8.774;2024-03-02T04:49:32;10.60;;;4.70;;
81996;SDS011;71500;50.806;8.774;2024-03-02T04:52:04;6.00;;;4.80;;
81996;SDS011;71500;50.806;8.774;2024-03-02T04:54:35;6.10;;;5.00;;
81996;SDS011;71500;50.806;8.774;2024-03-02T04:57:27;8.50;;;5.80;;
81996;SDS011;71500;50.806;8.774;2024-03-02T04:59:58;8.20;;;5.40;;
81996;SDS011;71500;50.806;8.774;2024-03-02T05:02:29;7.70;;;5.70;;
81996;SDS011;71500;50.806;8.774;2024-03-02T05:05:01;8.20;;;5.90;;
81996;SDS011;71500;50.806;8.774;2024-03-02T05:07:32;7.40;;;6.10;;
81996;SDS011;71500;50.806;8.774;2024-03-02T05:10:04;7.70;;;5.40;;
81996;SDS011;71500;50.806;8.774;2024-03-02T05:12:36;7.50;;;5.60;;
81996;SDS011;71500;50.806;8.774;2024-03-02T05:15:25;8.00;;;5.10;;
81996;SDS011;71500;50.806;8.774;2024-03-02T05:17:57;8.90;;;5.70;;
81996;SDS011;71500;50.806;8.774;2024-03-02T05:20:31;6.90;;;5.00;;
81996;SDS011;71500;50.806;8.774;2024-03-02T05:23:03;6.80;;;5.60;;
81996;SDS011;71500;50.806;8.774;2024-03-02T05:25:34;6.80;;;4.20;;
81996;SDS011;71500;50.806;8.774;2024-03-02T05:28:06;7.30;;;5.20;;
81996;SDS011;71500;50.806;8.774;2024-03-02T05:30:37;7.20;;;5.50;;
81996;SDS011;71500;50.806;8.774;2024-03-02T05:33:08;7.60;;;5.40;;
81996;SDS011;71500;50.806;8.774;2024-03-02T05:35:40;7.70;;;5.50;;
81996;SDS011;71500;50.806;8.774;2024-03-02T05:38:13;6.90;;;4.60;;
81996;SDS011;71500;50.806;8.774;2024-03-02T05:40:44;6.80;;;4.40;;
81996;SDS011;71500;50.806;8.774;2024-03-02T05:43:16;6.00;;;4.90;;
81996;SDS011;71500;50.806;8.774;2024-03-02T05:45:48;6.90;;;4.80;;
81996;SDS011;71500;50.806;8.774;2024-03-02T05:48:20;5.50;;;4.80;;
81996;SDS011;71500;50.806;8.774;2024-03-02T05:50:51;6.60;;;5.10;;
81996;SDS011;71500;50.806;8.774;2024-03-02T05:53:22;9.60;;;5.90;;
81996;SDS011;71500;50.806;8.774;2024-03-02T05:55:54;7.20;;;4.90;;
81996;SDS011;71500;50.806;8.774;2024-03-02T05:58:25;6.20;;;5.50;;
81996;SDS011;71500;50.806;8.774;2024-03-02T06:01:06;6.50;;;5.60;;
81996;SDS011;71500;50.806;8.774;2024-03-02T06:03:38;7.40;;;5.30;;
81996;SDS011;71500;50.806;8.774;2024-03-02T06:06:09;5.40;;;4.60;;
81996;SDS011;71500;50.806;8.774;2024-03-02T06:08:40;7.80;;;6.10;;
81996;SDS011;71500;50.806;8.774;2024-03-02T06:11:12;5.90;;;4.70;;
81996;SDS011;71500;50.806;8.774;2024-03-02T06:13:43;7.30;;;5.40;;
81996;SDS011;71500;50.806;8.774;2024-03-02T06:16:14;6.90;;;6.10;;
81996;SDS011;71500;50.806;8.774;2024-03-02T06:18:46;7.50;;;6.10;;
81996;SDS011;71500;50.806;8.774;2024-03-02T06:21:17;7.00;;;5.50;;
81996;SDS011;71500;50.806;8.774;2024-03-02T06:23:48;7.70;;;5.00;;
81996;SDS011;71500;50.806;8.774;2024-03-02T06:26:19;9.00;;;6.40;;
81996;SDS011;71500;50.806;8.774;2024-03-02T06:28:54;9.00;;;5.90;;
81996;SDS011;71500;50.806;8.774;2024-03-02T06:31:25;9.00;;;5.80;;
81996;SDS011;71500;50.806;8.774;2024-03-02T06:33:56;9.30;;;6.10;;
81996;SDS011;71500;50.806;8.774;2024-03-02T06:36:27;6.80;;;5.50;;
81996;SDS011;71500;50.806;8.774;2024-03-02T06:38:59;7.60;;;5.40;;
81996;SDS011;71500;50.806;8.774;2024-03-02T06:41:30;8.50;;;5.40;;
81996;SDS011;71500;50.806;8.774;2024-03-02T06:44:01;6.60;;;5.00;;
81996;SDS011;71500;50.806;8.774;2024-03-02T06:46:34;6.70;;;5.40;;
81996;SDS011;71500;50.806;8.774;2024-03-02T06:49:05;7.50;;;6.00;;
81996;SDS011;71500;50.806;8.774;2024-03-02T06:51:38;8.10;;;5.60;;
81996;SDS011;71500;50.806;8.774;2024-03-02T06:54:11;8.30;;;6.00;;
81996;SDS011;71500;50.806;8.774;2024-03-02T06:56:42;7.40;;;5.90;;
81996;SDS011;71500;50.806;8.774;2024-03-02T06:59:13;9.00;;;5.80;;
81996;SDS011;71500;50.806;8.774;2024-03-02T07:01:44;7.80;;;5.80;;
81996;SDS011;71500;50.806;8.774;2024-03-02T07:04:16;8.40;;;5.90;;
81996;SDS011;71500;50.806;8.774;2024-03-02T07:06:48;8.00;;;6.30;;
81996;SDS011;71500;50.806;8.774;2024-03-02T07:09:20;8.40;;;6.00;;
81996;SDS011;71500;50.806;8.774;2024-03-02T07:11:51;8.70;;;6.90;;
81996;SDS011;71500;50.806;8.774;2024-03-02T07:14:23;9.20;;;6.40;;
81996;SDS011;71500;50.806;8.774;2024-03-02T07:19:44;7.80;;;5.70;;
81996;SDS011;71500;50.806;8.774;2024-03-02T07:22:15;9.30;;;7.00;;
81996;SDS011;71500;50.806;8.774;2024-03-02T07:24:46;9.50;;;7.40;;
81996;SDS011;71500;50.806;8.774;2024-03-02T07:27:18;9.00;;;7.10;;
81996;SDS011;71500;50.806;8.774;2024-03-02T07:29:50;9.20;;;6.90;;
81996;SDS011;71500;50.806;8.774;2024-03-02T07:32:21;9.60;;;7.10;;
81996;SDS011;71500;50.806;8.774;2024-03-02T07:34:52;10.70;;;7.00;;
81996;SDS011;71500;50.806;8.774;2024-03-02T07:37:24;10.10;;;6.80;;
81996;SDS011;71500;50.806;8.774;2024-03-02T07:39:55;9.70;;;6.60;;
81996;SDS011;71500;50.806;8.774;2024-03-02T07:42:28;9.60;;;6.20;;
81996;SDS011;71500;50.806;8.774;2024-03-02T07:44:59;10.00;;;8.90;;
81996;SDS011;71500;50.806;8.774;2024-03-02T07:47:30;10.40;;;9.40;;
81996;SDS011;71500;50.806;8.774;2024-03-02T07:50:02;10.30;;;9.20;;
81996;SDS011;71500;50.806;8.774;2024-03-02T07:52:35;8.40;;;7.30;;
81996;SDS011;71500;50.806;8.774;2024-03-02T07:55:07;10.50;;;8.10;;
81996;SDS011;71500;50.806;8.774;2024-03-02T07:57:39;9.20;;;6.90;;
81996;SDS011;71500;50.806;8.774;2024-03-02T08:00:12;9.10;;;8.00;;
81996;SDS011;71500;50.806;8.774;2024-03-02T08:02:44;10.70;;;6.80;;
81996;SDS011;71500;50.806;8.774;2024-03-02T08:05:16;10.60;;;6.70;;
81996;SDS011;71500;50.806;8.774;2024-03-02T08:07:48;9.90;;;7.20;;
81996;SDS011;71500;50.806;8.774;2024-03-02T08:10:21;8.80;;;7.00;;
81996;SDS011;71500;50.806;8.774;2024-03-02T08:12:52;9.90;;;7.40;;
81996;SDS011;71500;50.806;8.774;2024-03-02T08:15:24;9.30;;;7.10;;
81996;SDS011;71500;50.806;8.774;2024-03-02T08:17:55;10.10;;;7.60;;
81996;SDS011;71500;50.806;8.774;2024-03-02T08:20:27;9.90;;;8.00;;
81996;SDS011;71500;50.806;8.774;2024-03-02T08:22:58;10.30;;;7.60;;
81996;SDS011;71500;50.806;8.774;2024-03-02T08:25:29;10.90;;;7.90;;
81996;SDS011;71500;50.806;8.774;2024-03-02T08:28:01;10.10;;;7.00;;
81996;SDS011;71500;50.806;8.774;2024-03-02T08:30:33;12.00;;;9.10;;
81996;SDS011;71500;50.806;8.774;2024-03-02T08:33:05;11.90;;;8.40;;
81996;SDS011;71500;50.806;8.774;2024-03-02T08:35:36;11.50;;;7.90;;
81996;SDS011;71500;50.806;8.774;2024-03-02T08:38:08;11.80;;;7.70;;
81996;SDS011;71500;50.806;8.774;2024-03-02T08:40:39;11.80;;;7.90;;
81996;SDS011;71500;50.806;8.774;2024-03-02T08:43:11;11.60;;;8.30;;
81996;SDS011;71500;50.806;8.774;2024-03-02T08:45:42;9.30;;;6.60;;
81996;SDS011;71500;50.806;8.774;2024-03-02T08:48:16;12.20;;;7.60;;
81996;SDS011;71500;50.806;8.774;2024-03-02T08:50:48;11.40;;;7.20;;
81996;SDS011;71500;50.806;8.774;2024-03-02T08:53:20;11.10;;;7.10;;
81996;SDS011;71500;50.806;8.774;2024-03-02T08:55:51;11.70;;;7.30;;
81996;SDS011;71500;50.806;8.774;2024-03-02T08:58:27;13.80;;;8.80;;
81996;SDS011;71500;50.806;8.774;2024-03-02T09:00:58;12.90;;;8.40;;
81996;SDS011;71500;50.806;8.774;2024-03-02T09:03:31;11.60;;;8.80;;
81996;SDS011;71500;50.806;8.774;2024-03-02T09:06:03;10.70;;;7.30;;
81996;SDS011;71500;50.806;8.774;2024-03-02T09:08:35;11.80;;;7.40;;
81996;SDS011;71500;50.806;8.774;2024-03-02T09:11:07;11.60;;;8.00;;
81996;SDS011;71500;50.806;8.774;2024-03-02T09:13:39;11.30;;;8.10;;
81996;SDS011;71500;50.806;8.774;2024-03-02T09:16:11;13.70;;;8.50;;
81996;SDS011;71500;50.806;8.774;2024-03-02T09:18:42;10.30;;;8.00;;
81996;SDS011;71500;50.806;8.774;2024-03-02T09:21:14;10.90;;;7.30;;
81996;SDS011;71500;50.806;8.774;2024-03-02T09:23:45;11.60;;;7.10;;
81996;SDS011;71500;50.806;8.774;2024-03-02T09:26:17;14.00;;;9.90;;
81996;SDS011;71500;50.806;8.774;2024-03-02T09:28:49;12.60;;;7.90;;
81996;SDS011;71500;50.806;8.774;2024-03-02T09:31:21;13.40;;;9.40;;
81996;SDS011;71500;50.806;8.774;2024-03-02T09:33:52;13.00;;;8.40;;
81996;SDS011;71500;50.806;8.774;2024-03-02T09:36:24;12.70;;;8.40;;
81996;SDS011;71500;50.806;8.774;2024-03-02T09:38:55;11.60;;;8.20;;
81996;SDS011;71500;50.806;8.774;2024-03-02T09:41:26;11.90;;;8.20;;
81996;SDS011;71500;50.806;8.774;2024-03-02T09:43:58;11.40;;;7.90;;
81996;SDS011;71500;50.806;8.774;2024-03-02T09:46:31;11.50;;;7.60;;
81996;SDS011;71500;50.806;8.774;2024-03-02T09:49:02;11.80;;;8.90;;
81996;SDS011;71500;50.806;8.774;2024-03-02T09:51:33;10.60;;;7.00;;
81996;SDS011;71500;50.806;8.774;2024-03-02T09:54:07;11.10;;;7.60;;
81996;SDS011;71500;50.806;8.774;2024-03-02T09:56:50;12.00;;;7.70;;
81996;SDS011;71500;50.806;8.774;2024-03-02T09:59:21;9.90;;;6.70;;
81996;SDS011;71500;50.806;8.774;2024-03-02T10:01:56;9.20;;;6.50;;
81996;SDS011;71500;50.806;8.774;2024-03-02T10:04:29;9.70;;;6.70;;
81996;SDS011;71500;50.806;8.774;2024-03-02T10:07:11;11.60;;;7.90;;
81996;SDS011;71500;50.806;8.774;2024-03-02T10:09:44;10.30;;;8.10;;
81996;SDS011;71500;50.806;8.774;2024-03-02T10:14:48;7.80;;;5.90;;
81996;SDS011;71500;50.806;8.774;2024-03-02T10:17:32;10.00;;;6.70;;
81996;SDS011;71500;50.806;8.774;2024-03-02T10:22:58;9.60;;;6.60;;
81996;SDS011;71500;50.806;8.774;2024-03-02T10:25:41;8.60;;;5.90;;
81996;SDS011;71500;50.806;8.774;2024-03-02T10:28:25;8.60;;;5.80;;
81996;SDS011;71500;50.806;8.774;2024-03-02T10:30:57;10.10;;;6.40;;
81996;SDS011;71500;50.806;8.774;2024-03-02T10:33:29;8.60;;;6.20;;
81996;SDS011;71500;50.806;8.774;2024-03-02T10:36:01;9.10;;;5.70;;
81996;SDS011;71500;50.806;8.774;2024-03-02T10:38:34;9.70;;;6.20;;
81996;SDS011;71500;50.806;8.774;2024-03-02T10:41:06;8.80;;;5.70;;
81996;SDS011;71500;50.806;8.774;2024-03-02T10:43:38;7.20;;;6.10;;
81996;SDS011;71500;50.806;8.774;2024-03-02T10:46:10;8.70;;;5.50;;
81996;SDS011;71500;50.806;8.774;2024-03-02T10:48:45;7.70;;;5.20;;
81996;SDS011;71500;50.806;8.774;2024-03-02T10:51:18;7.20;;;5.50;;
81996;SDS011;71500;50.806;8.774;2024-03-02T10:53:49;7.20;;;4.70;;
81996;SDS011;71500;50.806;8.774;2024-03-02T10:56:22;6.30;;;4.60;;
81996;SDS011;71500;50.806;8.774;2024-03-02T10:59:01;6.40;;;4.60;;
81996;SDS011;71500;50.806;8.774;2024-03-02T11:01:35;7.90;;;4.80;;
81996;SDS011;71500;50.806;8.774;2024-03-02T11:04:12;9.10;;;6.30;;
81996;SDS011;71500;50.806;8.774;2024-03-02T11:06:46;6.60;;;4.90;;
81996;SDS011;71500;50.806;8.774;2024-03-02T11:09:21;7.50;;;5.40;;
81996;SDS011;71500;50.806;8.774;2024-03-02T11:11:56;6.00;;;4.50;;
81996;SDS011;71500;50.806;8.774;2024-03-02T11:14:33;6.60;;;4.80;;
81996;SDS011;71500;50.806;8.774;2024-03-02T11:17:07;6.90;;;5.60;;
81996;SDS011;71500;50.806;8.774;2024-03-02T11:19:40;6.70;;;4.50;;
81996;SDS011;71500;50.806;8.774;2024-03-02T11:22:12;7.50;;;4.80;;
81996;SDS011;71500;50.806;8.774;2024-03-02T11:24:49;6.40;;;4.20;;
81996;SDS011;71500;50.806;8.774;2024-03-02T11:33:26;6.90;;;4.60;;
81996;SDS011;71500;50.806;8.774;2024-03-02T11:35:59;6.30;;;4.20;;
81996;SDS011;71500;50.806;8.774;2024-03-02T11:38:32;6.70;;;4.50;;
81996;SDS011;71500;50.806;8.774;2024-03-02T11:41:07;5.70;;;4.50;;
81996;SDS011;71500;50.806;8.774;2024-03-02T11:43:40;5.20;;;3.60;;
81996;SDS011;71500;50.806;8.774;2024-03-02T11:46:14;6.40;;;4.00;;
81996;SDS011;71500;50.806;8.774;2024-03-02T11:48:45;5.50;;;3.70;;
81996;SDS011;71500;50.806;8.774;2024-03-02T11:51:17;4.90;;;3.60;;
81996;SDS011;71500;50.806;8.774;2024-03-02T11:53:48;4.40;;;3.60;;
81996;SDS011;71500;50.806;8.774;2024-03-02T11:56:23;5.70;;;3.40;;
81996;SDS011;71500;50.806;8.774;2024-03-02T11:58:58;4.60;;;3.40;;
81996;SDS011;71500;50.806;8.774;2024-03-02T12:01:30;5.40;;;3.30;;
81996;SDS011;71500;50.806;8.774;2024-03-02T12:04:06;5.20;;;3.60;;
81996;SDS011;71500;50.806;8.774;2024-03-02T12:06:38;5.70;;;4.00;;
81996;SDS011;71500;50.806;8.774;2024-03-02T12:09:10;5.10;;;3.80;;
81996;SDS011;71500;50.806;8.774;2024-03-02T12:11:44;5.30;;;3.90;;
81996;SDS011;71500;50.806;8.774;2024-03-02T12:14:15;6.30;;;4.60;;
81996;SDS011;71500;50.806;8.774;2024-03-02T12:16:46;7.10;;;4.40;;
81996;SDS011;71500;50.806;8.774;2024-03-02T12:19:19;5.00;;;3.50;;
81996;SDS011;71500;50.806;8.774;2024-03-02T12:21:51;5.20;;;3.40;;
81996;SDS011;71500;50.806;8.774;2024-03-02T12:24:23;7.30;;;3.60;;
81996;SDS011;71500;50.806;8.774;2024-03-02T12:26:56;5.00;;;3.80;;
81996;SDS011;71500;50.806;8.774;2024-03-02T12:29:29;4.40;;;3.20;;
81996;SDS011;71500;50.806;8.774;2024-03-02T12:32:00;4.30;;;3.20;;
81996;SDS011;71500;50.806;8.774;2024-03-02T12:34:31;4.40;;;3.40;;
81996;SDS011;71500;50.806;8.774;2024-03-02T12:37:03;5.10;;;3.50;;
81996;SDS011;71500;50.806;8.774;2024-03-02T12:39:35;4.60;;;3.00;;
81996;SDS011;71500;50.806;8.774;2024-03-02T12:42:06;4.90;;;3.20;;
81996;SDS011;71500;50.806;8.774;2024-03-02T12:44:38;4.10;;;2.60;;
81996;SDS011;71500;50.806;8.774;2024-03-02T12:47:10;4.80;;;2.90;;
81996;SDS011;71500;50.806;8.774;2024-03-02T12:49:43;5.70;;;3.60;;
81996;SDS011;71500;50.806;8.774;2024-03-02T12:52:15;5.80;;;3.00;;
81996;SDS011;71500;50.806;8.774;2024-03-02T12:54:48;4.20;;;2.80;;
81996;SDS011;71500;50.806;8.774;2024-03-02T12:59:51;4.10;;;3.00;;
81996;SDS011;71500;50.806;8.774;2024-03-02T13:02:28;4.90;;;3.20;;
81996;SDS011;71500;50.806;8.774;2024-03-02T13:05:00;4.50;;;2.90;;
81996;SDS011;71500;50.806;8.774;2024-03-02T13:07:32;4.20;;;2.90;;
81996;SDS011;71500;50.806;8.774;2024-03-02T13:10:04;4.70;;;3.30;;
81996;SDS011;71500;50.806;8.774;2024-03-02T13:12:37;4.00;;;2.50;;
81996;SDS011;71500;50.806;8.774;2024-03-02T13:15:09;5.00;;;2.90;;
81996;SDS011;71500;50.806;8.774;2024-03-02T13:17:45;3.70;;;2.40;;
81996;SDS011;71500;50.806;8.774;2024-03-02T13:20:19;3.60;;;2.50;;
81996;SDS011;71500;50.806;8.774;2024-03-02T13:22:53;3.70;;;2.70;;
81996;SDS011;71500;50.806;8.774;2024-03-02T13:25:24;3.70;;;2.60;;
81996;SDS011;71500;50.806;8.774;2024-03-02T13:27:58;4.70;;;2.80;;
81996;SDS011;71500;50.806;8.774;2024-03-02T13:30:30;5.20;;;2.90;;
81996;SDS011;71500;50.806;8.774;2024-03-02T13:33:01;4.40;;;2.40;;
81996;SDS011;71500;50.806;8.774;2024-03-02T13:35:33;3.40;;;2.40;;
81996;SDS011;71500;50.806;8.774;2024-03-02T13:38:04;4.50;;;2.40;;
81996;SDS011;71500;50.806;8.774;2024-03-02T13:40:36;3.50;;;2.20;;
81996;SDS011;71500;50.806;8.774;2024-03-02T13:43:07;3.40;;;2.40;;
81996;SDS011;71500;50.806;8.774;2024-03-02T13:45:39;3.50;;;2.50;;
81996;SDS011;71500;50.806;8.774;2024-03-02T13:48:11;3.50;;;2.40;;
81996;SDS011;71500;50.806;8.774;2024-03-02T13:50:43;3.60;;;2.50;;
81996;SDS011;71500;50.806;8.774;2024-03-02T13:53:15;3.60;;;2.40;;
81996;SDS011;71500;50.806;8.774;2024-03-02T13:55:46;4.50;;;2.70;;
81996;SDS011;71500;50.806;8.774;2024-03-02T13:58:18;4.30;;;2.30;;
81996;SDS011;71500;50.806;8.774;2024-03-02T14:00:50;4.00;;;2.40;;
81996;SDS011;71500;50.806;8.774;2024-03-02T14:03:21;4.10;;;2.30;;
81996;SDS011;71500;50.806;8.774;2024-03-02T14:05:54;4.30;;;2.70;;
81996;SDS011;71500;50.806;8.774;2024-03-02T14:08:26;4.40;;;2.80;;
81996;SDS011;71500;50.806;8.774;2024-03-02T14:10:58;3.50;;;2.60;;
81996;SDS011;71500;50.806;8.774;2024-03-02T14:13:31;4.30;;;2.50;;
81996;SDS011;71500;50.806;8.774;2024-03-02T14:16:03;4.00;;;2.40;;
81996;SDS011;71500;50.806;8.774;2024-03-02T14:18:35;3.60;;;2.00;;
81996;SDS011;71500;50.806;8.774;2024-03-02T14:21:07;3.30;;;2.20;;
81996;SDS011;71500;50.806;8.774;2024-03-02T14:23:38;3.10;;;2.10;;
81996;SDS011;71500;50.806;8.774;2024-03-02T14:26:10;3.60;;;2.50;;
81996;SDS011;71500;50.806;8.774;2024-03-02T14:28:41;3.60;;;2.80;;
81996;SDS011;71500;50.806;8.774;2024-03-02T14:31:19;3.50;;;2.20;;
81996;SDS011;71500;50.806;8.774;2024-03-02T14:33:52;3.90;;;2.40;;
81996;SDS011;71500;50.806;8.774;2024-03-02T14:36:24;4.80;;;3.10;;
81996;SDS011;71500;50.806;8.774;2024-03-02T14:38:57;3.50;;;2.40;;
81996;SDS011;71500;50.806;8.774;2024-03-02T14:41:29;4.20;;;2.40;;
81996;SDS011;71500;50.806;8.774;2024-03-02T14:44:01;4.00;;;3.10;;
81996;SDS011;71500;50.806;8.774;2024-03-02T14:46:32;5.30;;;3.80;;
81996;SDS011;71500;50.806;8.774;2024-03-02T14:49:03;3.80;;;2.50;;
81996;SDS011;71500;50.806;8.774;2024-03-02T14:51:36;3.80;;;2.30;;
81996;SDS011;71500;50.806;8.774;2024-03-02T14:54:07;4.10;;;2.50;;
81996;SDS011;71500;50.806;8.774;2024-03-02T14:56:38;3.20;;;2.20;;
81996;SDS011;71500;50.806;8.774;2024-03-02T14:59:10;4.20;;;2.20;;
81996;SDS011;71500;50.806;8.774;2024-03-02T15:01:41;5.00;;;3.00;;
81996;SDS011;71500;50.806;8.774;2024-03-02T15:04:13;5.70;;;3.90;;
81996;SDS011;71500;50.806;8.774;2024-03-02T15:06:50;3.10;;;2.30;;
81996;SDS011;71500;50.806;8.774;2024-03-02T15:09:21;5.10;;;3.00;;
81996;SDS011;71500;50.806;8.774;2024-03-02T15:11:52;4.80;;;2.70;;
81996;SDS011;71500;50.806;8.774;2024-03-02T15:14:24;3.90;;;2.50;;
81996;SDS011;71500;50.806;8.774;2024-03-02T15:16:56;2.90;;;2.10;;
81996;SDS011;71500;50.806;8.774;2024-03-02T15:19:28;3.40;;;2.20;;
81996;SDS011;71500;50.806;8.774;2024-03-02T15:21:59;4.00;;;1.90;;
81996;SDS011;71500;50.806;8.774;2024-03-02T15:24:31;3.00;;;1.90;;
81996;SDS011;71500;50.806;8.774;2024-03-02T15:27:03;3.00;;;1.90;;
81996;SDS011;71500;50.806;8.774;2024-03-02T15:29:37;3.30;;;2.10;;
81996;SDS011;71500;50.806;8.774;2024-03-02T15:32:09;3.10;;;2.00;;
81996;SDS011;71500;50.806;8.774;2024-03-02T15:34:40;2.90;;;1.90;;
81996;SDS011;71500;50.806;8.774;2024-03-02T15:37:12;2.70;;;1.90;;